ΕΜΥ, Εθνική Μετεωρολογική Υπηρεσία - Δελτία Καιρού, Προγνώσεις

ΑΕΡΟΝΑΥΤΙΛΙΑ

GREEK AIRPORTS CODES

TAF LGST 262000Z 2621/2706 22012KT 9999 SCT025 SCT070 BECMG 2700/2702 VRB05KT PROB30 TEMPO 2703/2706 5000 RA FEW018TCU BKN025=

EUROPEAN AIRPORTS CODES